createdAt,value
2023-04-19T00:00:12.120Z,57.19
2023-04-19T00:02:42.878Z,57.16
2023-04-19T00:05:12.105Z,57.68
2023-04-19T00:07:40.062Z,57.67
2023-04-19T00:10:09.215Z,57.54
2023-04-19T00:12:37.785Z,58.06
2023-04-19T00:15:06.581Z,58.25
2023-04-19T00:17:34.766Z,58.42
2023-04-19T00:20:05.382Z,58.60
2023-04-19T00:22:33.236Z,58.70
2023-04-19T00:25:01.053Z,58.81
2023-04-19T00:27:29.102Z,59.04
2023-04-19T00:29:57.456Z,58.87
2023-04-19T00:32:25.559Z,58.93
2023-04-19T00:34:53.777Z,59.22
2023-04-19T00:37:22.996Z,59.42
2023-04-19T00:39:50.820Z,59.59
2023-04-19T00:42:18.810Z,59.73
2023-04-19T00:44:46.644Z,60.10
2023-04-19T00:47:15.461Z,60.31
2023-04-19T00:49:43.672Z,60.38
2023-04-19T00:52:11.531Z,60.30
2023-04-19T00:54:41.976Z,60.45
2023-04-19T00:57:10.127Z,60.54
2023-04-19T00:59:38.841Z,61.36
2023-04-19T01:02:07.510Z,61.02
2023-04-19T01:04:36.325Z,60.97
2023-04-19T01:07:04.350Z,61.23
2023-04-19T01:09:32.192Z,61.55
2023-04-19T01:12:03.565Z,61.66
2023-04-19T01:14:31.451Z,61.71
2023-04-19T01:16:59.410Z,61.93
2023-04-19T01:19:27.568Z,62.30
2023-04-19T01:21:56.419Z,62.41
2023-04-19T01:24:25.708Z,62.76
2023-04-19T01:26:53.871Z,62.67
2023-04-19T01:29:22.205Z,62.63
2023-04-19T01:31:53.706Z,63.04
2023-04-19T01:34:23.277Z,63.18
2023-04-19T01:36:51.460Z,63.27
2023-04-19T01:39:19.398Z,63.50
2023-04-19T01:41:49.079Z,63.50
2023-04-19T01:44:17.065Z,63.38
2023-04-19T01:46:47.881Z,63.75
2023-04-19T01:49:16.242Z,63.46
2023-04-19T01:51:44.102Z,64.22
2023-04-19T01:54:12.133Z,64.25
2023-04-19T01:56:40.243Z,63.78
2023-04-19T01:59:09.581Z,64.09
2023-04-19T02:01:37.508Z,64.42
2023-04-19T02:04:06.204Z,64.44
2023-04-19T02:06:34.127Z,64.24
2023-04-19T02:09:02.137Z,64.59
2023-04-19T02:11:30.147Z,64.97
2023-04-19T02:13:58.068Z,64.58
2023-04-19T02:16:27.386Z,64.93
2023-04-19T02:18:55.438Z,64.98
2023-04-19T02:21:23.268Z,65.36
2023-04-19T02:23:51.170Z,65.74
2023-04-19T02:26:20.519Z,65.85
2023-04-19T02:28:48.372Z,65.79
2023-04-19T02:31:16.637Z,65.98
2023-04-19T02:33:47.387Z,65.93
2023-04-19T02:36:15.316Z,65.70
2023-04-19T02:38:43.388Z,66.29
2023-04-19T02:41:11.422Z,65.81
2023-04-19T02:43:39.243Z,66.60
2023-04-19T02:46:07.258Z,66.25
2023-04-19T02:48:35.438Z,66.96
2023-04-19T02:51:04.907Z,66.65
2023-04-19T02:53:32.785Z,67.09
2023-04-19T02:56:01.527Z,67.04
2023-04-19T02:58:29.408Z,66.70
2023-04-19T03:00:57.295Z,66.83
2023-04-19T03:03:25.486Z,66.87
2023-04-19T03:05:53.436Z,67.35
2023-04-19T03:08:22.650Z,67.69
2023-04-19T03:10:50.895Z,67.58
2023-04-19T03:13:18.719Z,67.26
2023-04-19T03:15:46.805Z,68.01
2023-04-19T03:18:15.105Z,67.50
2023-04-19T03:20:42.945Z,68.05
2023-04-19T03:23:10.948Z,67.83
2023-04-19T03:25:40.340Z,67.98
2023-04-19T03:28:08.194Z,68.28
2023-04-19T03:30:36.027Z,68.05
2023-04-19T03:33:04.057Z,68.67
2023-04-19T03:35:32.560Z,68.55
2023-04-19T03:38:00.542Z,68.53
2023-04-19T03:40:28.579Z,68.73
2023-04-19T03:42:57.796Z,68.63
2023-04-19T03:45:25.704Z,68.68
2023-04-19T03:47:54.000Z,69.06
2023-04-19T03:50:21.872Z,68.86
2023-04-19T03:52:49.771Z,69.30
2023-04-19T03:55:18.000Z,68.98
2023-04-19T03:57:45.912Z,68.90
2023-04-19T04:00:16.687Z,69.28
2023-04-19T04:02:45.119Z,69.85
2023-04-19T04:05:13.450Z,69.55
2023-04-19T04:07:41.445Z,69.67
2023-04-19T04:10:10.499Z,69.64
2023-04-19T04:12:38.357Z,69.69
2023-04-19T04:15:07.141Z,70.16
2023-04-19T04:17:36.532Z,69.67
2023-04-19T04:20:05.735Z,70.37
2023-04-19T04:22:33.828Z,70.12
2023-04-19T04:25:02.302Z,69.64
2023-04-19T04:27:30.151Z,69.96
2023-04-19T04:29:58.000Z,70.22
2023-04-19T04:32:26.485Z,69.95
2023-04-19T04:34:56.153Z,69.81
2023-04-19T04:37:24.439Z,70.06
2023-04-19T04:39:52.849Z,70.35
2023-04-19T04:42:21.630Z,70.47
2023-04-19T04:44:51.287Z,70.09
2023-04-19T04:47:19.838Z,70.00
2023-04-19T04:49:47.838Z,70.43
2023-04-19T04:52:18.632Z,69.96
2023-04-19T04:54:46.589Z,69.85
2023-04-19T04:57:14.420Z,70.38
2023-04-19T04:59:42.407Z,69.67
2023-04-19T05:02:11.124Z,69.87
2023-04-19T05:04:39.310Z,70.12
2023-04-19T05:07:07.449Z,69.83
2023-04-19T05:09:36.814Z,70.11
2023-04-19T05:12:05.096Z,69.64
2023-04-19T05:14:33.380Z,69.62
2023-04-19T05:17:01.325Z,69.78
2023-04-19T05:19:29.413Z,69.23
2023-04-19T05:21:57.647Z,69.55
2023-04-19T05:24:26.175Z,69.21
2023-04-19T05:26:55.409Z,69.51
2023-04-19T05:29:23.427Z,69.10
2023-04-19T05:31:51.633Z,68.85
2023-04-19T05:34:22.032Z,68.88
2023-04-19T05:36:50.314Z,68.75
2023-04-19T05:39:18.321Z,68.59
2023-04-19T05:41:46.255Z,68.65
2023-04-19T05:44:16.044Z,68.22
2023-04-19T05:46:44.222Z,68.23
2023-04-19T05:49:12.090Z,68.10
2023-04-19T05:51:40.110Z,68.05
2023-04-19T05:54:12.602Z,68.10
2023-04-19T05:56:40.626Z,67.66
2023-04-19T05:59:08.536Z,67.58
2023-04-19T06:01:38.036Z,67.44
2023-04-19T06:04:06.218Z,66.97
2023-04-19T06:06:34.275Z,66.96
2023-04-19T06:09:02.218Z,66.49
2023-04-19T06:11:38.842Z,66.58
2023-04-19T06:14:18.160Z,65.91
2023-04-19T06:16:48.240Z,65.90
2023-04-19T06:19:16.524Z,65.40
2023-04-19T06:21:44.379Z,65.14
2023-04-19T06:24:12.350Z,64.81
2023-04-19T06:26:40.468Z,65.17
2023-04-19T06:29:08.402Z,64.53
2023-04-19T06:31:36.440Z,64.63
2023-04-19T06:34:05.828Z,64.72
2023-04-19T06:36:33.996Z,64.02
2023-04-19T06:39:01.932Z,63.75
2023-04-19T06:41:29.892Z,63.39
2023-04-19T06:43:57.796Z,63.38
2023-04-19T06:46:27.704Z,62.95
2023-04-19T06:48:56.074Z,62.45
2023-04-19T06:51:25.288Z,62.56
2023-04-19T06:53:53.147Z,61.82
2023-04-19T06:56:40.978Z,61.85
2023-04-19T06:59:09.117Z,62.17
2023-04-19T07:01:37.223Z,63.45
2023-04-19T07:04:08.650Z,64.77
2023-04-19T07:06:38.838Z,64.14
2023-04-19T07:09:07.673Z,62.98
2023-04-19T07:11:35.850Z,61.15
2023-04-19T07:14:03.968Z,59.18
2023-04-19T07:16:32.050Z,57.41
2023-04-19T07:19:00.145Z,55.64
2023-04-19T07:21:33.029Z,53.53
2023-04-19T07:24:02.477Z,51.38
2023-04-19T07:26:30.797Z,50.26
2023-04-19T07:28:58.933Z,48.66
2023-04-19T07:31:27.020Z,47.60
2023-04-19T07:33:55.286Z,46.53
2023-04-19T07:36:23.264Z,45.33
2023-04-19T07:38:51.158Z,44.38
2023-04-19T07:41:21.157Z,43.41
2023-04-19T07:43:49.025Z,42.88
2023-04-19T07:46:17.200Z,42.20
2023-04-19T07:48:46.471Z,41.36
2023-04-19T07:51:16.447Z,40.36
2023-04-19T07:53:44.999Z,40.00
2023-04-19T07:56:13.358Z,39.40
2023-04-19T07:58:43.900Z,38.96
2023-04-19T08:01:12.131Z,38.57
2023-04-19T08:03:40.391Z,37.71
2023-04-19T08:06:09.344Z,37.36
2023-04-19T08:08:41.374Z,37.05
2023-04-19T08:11:09.319Z,36.65
2023-04-19T08:13:37.170Z,36.27
2023-04-19T08:18:38.269Z,35.16
2023-04-19T08:21:06.438Z,34.72
2023-04-19T08:23:47.256Z,34.24
2023-04-19T08:26:16.382Z,33.59
2023-04-19T08:28:44.433Z,33.31
2023-04-19T08:31:13.778Z,32.77
2023-04-19T08:33:41.808Z,32.24
2023-04-19T08:36:10.624Z,31.63
2023-04-19T08:38:39.033Z,31.29
2023-04-19T08:41:07.099Z,30.98
2023-04-19T08:43:39.863Z,30.71
2023-04-19T08:46:11.807Z,30.83
2023-04-19T08:48:42.548Z,30.71
2023-04-19T08:51:13.803Z,30.75
2023-04-19T08:53:42.389Z,31.15
2023-04-19T08:56:21.102Z,30.95
2023-04-19T09:01:35.630Z,30.22
2023-04-19T09:06:41.820Z,29.40
2023-04-19T09:09:34.017Z,28.85
2023-04-19T09:12:05.356Z,29.07
2023-04-19T09:14:33.350Z,28.56
2023-04-19T09:17:17.811Z,27.79
2023-04-19T09:19:51.019Z,28.02
2023-04-19T09:22:19.534Z,27.87
2023-04-19T09:27:27.467Z,26.54
2023-04-19T09:29:57.301Z,26.87
2023-04-19T09:32:26.534Z,26.90
2023-04-19T09:34:57.642Z,26.45
2023-04-19T09:37:51.538Z,26.33
2023-04-19T09:40:24.608Z,26.07
2023-04-19T09:45:30.102Z,26.26
2023-04-19T09:48:04.182Z,25.96
2023-04-19T09:50:39.113Z,25.77
2023-04-19T09:53:18.821Z,25.72
2023-04-19T09:55:59.563Z,25.44
2023-04-19T09:58:38.249Z,25.74
2023-04-19T10:01:20.055Z,25.90
2023-04-19T10:03:51.501Z,25.37
2023-04-19T10:08:55.856Z,25.28
2023-04-19T10:11:25.444Z,25.36
2023-04-19T10:13:58.244Z,24.84
2023-04-19T10:16:28.269Z,25.11
2023-04-19T10:18:57.097Z,25.17
2023-04-19T10:21:29.972Z,24.87
2023-04-19T10:24:00.032Z,25.04
2023-04-19T10:26:27.897Z,25.20
2023-04-19T10:28:57.569Z,25.37
2023-04-19T10:31:27.652Z,25.15
2023-04-19T10:33:57.790Z,25.12
2023-04-19T10:36:28.986Z,24.98
2023-04-19T10:38:56.922Z,24.80
2023-04-19T10:41:25.313Z,24.94
2023-04-19T10:44:11.636Z,24.79
2023-04-19T10:46:41.178Z,24.75
2023-04-19T10:49:09.942Z,24.86
2023-04-19T10:51:42.528Z,24.59
2023-04-19T10:54:31.484Z,24.50
2023-04-19T10:57:04.738Z,24.75
2023-04-19T10:59:33.647Z,25.06
2023-04-19T11:02:03.247Z,24.62
2023-04-19T11:05:11.657Z,24.96
2023-04-19T11:07:44.353Z,25.04
2023-04-19T11:10:12.868Z,24.75
2023-04-19T11:12:44.921Z,24.77
2023-04-19T11:15:13.008Z,24.88
2023-04-19T11:17:42.778Z,24.90
2023-04-19T11:20:12.117Z,24.81
2023-04-19T11:22:42.600Z,24.83
2023-04-19T11:25:13.999Z,24.66
2023-04-19T11:27:44.231Z,24.83
2023-04-19T11:30:14.281Z,24.51
2023-04-19T11:32:49.680Z,24.36
2023-04-19T11:35:23.323Z,24.33
2023-04-19T11:37:52.371Z,24.19
2023-04-19T11:40:23.337Z,24.21
2023-04-19T11:42:56.797Z,24.53
2023-04-19T11:45:33.075Z,24.53
2023-04-19T11:48:05.856Z,24.30
2023-04-19T11:50:38.713Z,24.15
2023-04-19T11:53:17.361Z,24.10
2023-04-19T11:55:47.824Z,23.94
2023-04-19T11:58:32.602Z,24.05
2023-04-19T12:01:07.037Z,23.79
2023-04-19T12:03:36.456Z,23.57
2023-04-19T12:06:09.118Z,23.23
2023-04-19T12:08:38.680Z,22.72
2023-04-19T12:11:10.588Z,22.38
2023-04-19T12:13:40.910Z,22.00
2023-04-19T12:16:09.642Z,22.10
2023-04-19T12:18:46.062Z,22.11
2023-04-19T12:21:25.817Z,21.98
2023-04-19T12:23:58.100Z,21.91
2023-04-19T12:26:29.373Z,21.79
2023-04-19T12:28:58.278Z,22.06
2023-04-19T12:31:26.272Z,21.98
2023-04-19T12:33:54.370Z,21.72
2023-04-19T12:36:22.637Z,21.16
2023-04-19T12:38:50.519Z,21.48
2023-04-19T12:41:19.345Z,21.03
2023-04-19T12:43:48.807Z,21.00
2023-04-19T12:46:16.759Z,20.78
2023-04-19T12:48:44.700Z,20.52
2023-04-19T12:51:12.838Z,19.79
2023-04-19T12:53:42.541Z,20.15
2023-04-19T12:56:12.065Z,20.14
2023-04-19T12:58:40.481Z,20.59
2023-04-19T13:01:09.812Z,20.31
2023-04-19T13:03:38.016Z,20.21
2023-04-19T13:06:07.281Z,19.76
2023-04-19T13:08:44.579Z,19.75
2023-04-19T13:11:14.881Z,20.01
2023-04-19T13:13:42.827Z,20.31
2023-04-19T13:16:12.084Z,20.15
2023-04-19T13:18:40.584Z,20.27
2023-04-19T13:21:08.847Z,19.64
2023-04-19T13:23:36.953Z,19.22
2023-04-19T13:26:05.238Z,19.61
2023-04-19T13:28:35.710Z,19.63
2023-04-19T13:31:04.731Z,19.36
2023-04-19T13:33:34.475Z,19.69
2023-04-19T13:36:02.432Z,19.18
2023-04-19T13:38:30.650Z,18.96
2023-04-19T13:40:59.392Z,18.79
2023-04-19T13:43:27.357Z,18.64
2023-04-19T13:45:55.331Z,18.81
2023-04-19T13:48:23.658Z,18.84
2023-04-19T13:50:54.926Z,18.96
2023-04-19T13:53:23.269Z,18.45
2023-04-19T13:55:52.246Z,18.48
2023-04-19T13:58:20.646Z,18.13
2023-04-19T14:00:49.138Z,18.22
2023-04-19T14:03:17.632Z,18.26
2023-04-19T14:05:45.718Z,18.13
2023-04-19T14:08:15.023Z,18.17
2023-04-19T14:10:43.134Z,18.09
2023-04-19T14:13:11.053Z,18.03
2023-04-19T14:15:38.964Z,17.83
2023-04-19T14:18:07.180Z,17.64
2023-04-19T14:20:35.521Z,17.61
2023-04-19T14:23:03.906Z,18.01
2023-04-19T14:25:33.286Z,17.92
2023-04-19T14:28:01.233Z,17.48
2023-04-19T14:30:31.006Z,17.76
2023-04-19T14:32:59.119Z,17.69
2023-04-19T14:35:27.126Z,17.90
2023-04-19T14:37:55.042Z,17.25
2023-04-19T14:40:22.975Z,17.10
2023-04-19T14:42:53.357Z,17.20
2023-04-19T14:45:21.624Z,17.21
2023-04-19T14:47:50.383Z,17.49
2023-04-19T14:50:21.543Z,17.65
2023-04-19T14:52:49.789Z,17.69
2023-04-19T14:55:17.804Z,17.57
2023-04-19T14:57:46.009Z,18.25
2023-04-19T15:00:16.396Z,18.21
2023-04-19T15:02:44.426Z,18.78
2023-04-19T15:05:12.598Z,18.37
2023-04-19T15:07:40.608Z,18.14
2023-04-19T15:10:09.505Z,18.50
2023-04-19T15:12:37.549Z,18.96
2023-04-19T15:15:06.235Z,19.83
2023-04-19T15:17:36.043Z,19.79
2023-04-19T15:20:05.742Z,20.22
2023-04-19T15:22:33.939Z,20.33
2023-04-19T15:25:02.178Z,20.17
2023-04-19T15:27:30.318Z,19.76
2023-04-19T15:29:58.261Z,19.39
2023-04-19T15:32:26.604Z,19.44
2023-04-19T15:34:55.975Z,19.81
2023-04-19T15:37:23.817Z,20.32
2023-04-19T15:39:51.648Z,20.49
2023-04-19T15:42:20.003Z,20.38
2023-04-19T15:44:47.893Z,20.73
2023-04-19T15:47:15.913Z,20.58
2023-04-19T15:49:43.862Z,20.76
2023-04-19T15:52:13.093Z,20.69
2023-04-19T15:54:41.290Z,20.75
2023-04-19T15:57:09.328Z,20.66
2023-04-19T15:59:37.290Z,20.90
2023-04-19T16:02:05.557Z,20.84
2023-04-19T16:04:34.761Z,21.02
2023-04-19T16:07:02.875Z,20.73
2023-04-19T16:09:32.304Z,21.23
2023-04-19T16:12:00.906Z,21.39
2023-04-19T16:14:28.802Z,21.53
2023-04-19T16:16:56.743Z,21.53
2023-04-19T16:19:25.891Z,21.33
2023-04-19T16:21:53.744Z,21.26
2023-04-19T16:24:21.744Z,21.33
2023-04-19T16:26:51.072Z,21.56
2023-04-19T16:29:19.063Z,21.23
2023-04-19T16:31:48.555Z,21.42
2023-04-19T16:34:19.058Z,21.57
2023-04-19T16:36:47.383Z,21.40
2023-04-19T16:39:17.992Z,22.10
2023-04-19T16:41:46.374Z,22.27
2023-04-19T16:44:15.574Z,22.24
2023-04-19T16:46:44.029Z,22.94
2023-04-19T16:49:12.136Z,23.36
2023-04-19T16:51:39.979Z,23.73
2023-04-19T16:54:07.804Z,23.99
2023-04-19T16:56:35.730Z,24.22
2023-04-19T16:59:03.930Z,24.50
2023-04-19T17:01:33.141Z,25.11
2023-04-19T17:04:01.480Z,25.35
2023-04-19T17:06:29.434Z,25.79
2023-04-19T17:08:57.331Z,25.97
2023-04-19T17:11:25.490Z,26.10
2023-04-19T17:13:55.305Z,26.25
2023-04-19T17:16:25.000Z,26.41
2023-04-19T17:18:56.797Z,26.69
2023-04-19T17:21:27.798Z,27.00
2023-04-19T17:23:55.725Z,27.39
2023-04-19T17:26:23.682Z,27.87
2023-04-19T17:28:51.690Z,28.38
2023-04-19T17:31:19.680Z,28.94
2023-04-19T17:33:47.586Z,29.57
2023-04-19T17:36:16.929Z,29.97
2023-04-19T17:38:45.107Z,30.11
2023-04-19T17:41:16.307Z,30.26
2023-04-19T17:43:44.602Z,30.79
2023-04-19T17:46:13.290Z,31.06
2023-04-19T17:48:41.233Z,31.60
2023-04-19T17:51:09.555Z,31.71
2023-04-19T17:53:38.852Z,31.77
2023-04-19T17:56:06.879Z,31.85
2023-04-19T17:58:36.261Z,32.36
2023-04-19T18:01:04.515Z,32.81
2023-04-19T18:03:32.707Z,32.68
2023-04-19T18:06:00.762Z,33.17
2023-04-19T18:08:28.738Z,33.35
2023-04-19T18:10:57.972Z,33.30
2023-04-19T18:13:26.656Z,33.97
2023-04-19T18:15:54.854Z,34.04
2023-04-19T18:18:23.361Z,34.04
2023-04-19T18:20:51.597Z,34.40
2023-04-19T18:23:19.622Z,34.86
2023-04-19T18:25:54.291Z,35.02
2023-04-19T18:28:23.658Z,35.17
2023-04-19T18:30:51.498Z,34.95
2023-04-19T18:33:28.094Z,35.36
2023-04-19T18:35:56.096Z,35.07
2023-04-19T18:38:23.999Z,35.90
2023-04-19T18:40:52.511Z,35.92
2023-04-19T18:43:20.563Z,36.21
2023-04-19T18:45:56.191Z,36.74
2023-04-19T18:48:27.991Z,36.78
2023-04-19T18:50:57.198Z,36.88
2023-04-19T18:53:26.876Z,37.03
2023-04-19T18:55:57.603Z,37.05
2023-04-19T18:58:28.156Z,37.13
2023-04-19T19:00:57.742Z,37.37
2023-04-19T19:05:58.512Z,37.41
2023-04-19T19:08:26.734Z,37.41
2023-04-19T19:13:25.641Z,37.59
2023-04-19T19:15:53.826Z,37.60
2023-04-19T19:18:23.240Z,37.88
2023-04-19T19:20:51.679Z,38.00
2023-04-19T19:23:20.517Z,38.12
2023-04-19T19:25:54.215Z,38.15
2023-04-19T19:28:22.554Z,38.23
2023-04-19T19:30:50.829Z,38.32
2023-04-19T19:33:19.092Z,38.21
2023-04-19T19:35:48.363Z,38.33
2023-04-19T19:38:16.469Z,38.26
2023-04-19T19:43:16.427Z,38.46
2023-04-19T19:45:44.505Z,38.25
2023-04-19T19:48:12.656Z,38.39
2023-04-19T19:53:13.004Z,38.11
2023-04-19T19:55:40.986Z,38.33
2023-04-19T20:00:46.850Z,38.56
2023-04-19T20:03:24.889Z,38.30
2023-04-19T20:06:35.551Z,38.24
2023-04-19T20:08:56.172Z,38.31
2023-04-19T20:11:24.554Z,38.62
2023-04-19T20:13:52.405Z,38.54
2023-04-19T20:16:20.971Z,38.41
2023-04-19T20:18:49.924Z,38.64
2023-04-19T20:21:19.654Z,38.80
2023-04-19T20:23:47.573Z,38.89
2023-04-19T20:26:17.021Z,38.80
2023-04-19T20:28:44.849Z,38.76
2023-04-19T20:31:12.694Z,38.77
2023-04-19T20:33:40.812Z,38.82
2023-04-19T20:36:09.562Z,38.85
2023-04-19T20:38:37.514Z,38.88
2023-04-19T20:41:06.157Z,38.90
2023-04-19T20:43:35.679Z,39.52
2023-04-19T20:46:03.674Z,39.09
2023-04-19T20:48:31.939Z,39.45
2023-04-19T20:50:59.783Z,39.39
2023-04-19T20:53:27.802Z,39.97
2023-04-19T20:55:56.096Z,39.84
2023-04-19T20:58:23.955Z,39.55
2023-04-19T21:00:53.368Z,40.20
2023-04-19T21:03:21.462Z,39.84
2023-04-19T21:05:49.514Z,39.91
2023-04-19T21:08:19.100Z,40.02
2023-04-19T21:10:48.359Z,40.08
2023-04-19T21:13:16.255Z,40.41
2023-04-19T21:15:44.319Z,39.76
2023-04-19T21:18:13.635Z,40.25
2023-04-19T21:20:41.497Z,40.30
2023-04-19T21:23:09.442Z,40.47
2023-04-19T21:25:37.370Z,40.78
2023-04-19T21:28:05.223Z,40.71
2023-04-19T21:30:33.589Z,40.44
2023-04-19T21:33:01.626Z,40.73
2023-04-19T21:35:30.882Z,40.55
2023-04-19T21:37:59.059Z,41.15
2023-04-19T21:40:27.079Z,41.09
2023-04-19T21:42:55.004Z,41.34
2023-04-19T21:45:22.960Z,41.40
2023-04-19T21:47:51.997Z,41.38
2023-04-19T21:50:19.987Z,41.29
2023-04-19T21:52:49.282Z,41.40
2023-04-19T21:55:17.221Z,41.28
2023-04-19T21:57:45.091Z,41.76
2023-04-19T22:00:13.921Z,41.82
2023-04-19T22:02:42.139Z,41.86
2023-04-19T22:05:10.436Z,42.09
2023-04-19T22:07:38.651Z,42.23
2023-04-19T22:10:09.715Z,42.80
2023-04-19T22:12:47.971Z,42.24
2023-04-19T22:15:23.456Z,42.15
2023-04-19T22:17:52.042Z,42.13
2023-04-19T22:20:20.235Z,42.51
2023-04-19T22:22:48.273Z,42.88
2023-04-19T22:25:17.477Z,42.41
2023-04-19T22:27:45.708Z,42.72
2023-04-19T22:30:14.159Z,42.87
2023-04-19T22:32:42.032Z,43.31
2023-04-19T22:35:10.623Z,43.10
2023-04-19T22:37:38.664Z,43.05
2023-04-19T22:40:07.855Z,43.01
2023-04-19T22:42:37.225Z,43.33
2023-04-19T22:45:06.389Z,43.33
2023-04-19T22:47:34.286Z,43.89
2023-04-19T22:50:02.309Z,43.59
2023-04-19T22:52:30.510Z,43.61
2023-04-19T22:54:58.467Z,43.71
2023-04-19T22:57:26.425Z,44.33
2023-04-19T22:59:55.861Z,44.61
2023-04-19T23:02:23.773Z,44.70
2023-04-19T23:04:52.277Z,44.43
2023-04-19T23:07:22.060Z,44.25
2023-04-19T23:09:51.052Z,44.94
2023-04-19T23:12:18.899Z,44.76
2023-04-19T23:14:48.576Z,45.11
2023-04-19T23:17:18.201Z,45.12
2023-04-19T23:19:46.460Z,44.89
2023-04-19T23:22:14.541Z,45.31
2023-04-19T23:24:42.375Z,45.31
2023-04-19T23:27:10.382Z,45.12
2023-04-19T23:29:39.103Z,45.56
2023-04-19T23:32:07.197Z,45.88
2023-04-19T23:34:37.435Z,45.71
2023-04-19T23:37:05.792Z,45.63
2023-04-19T23:39:33.794Z,46.02
2023-04-19T23:42:02.186Z,45.86
2023-04-19T23:44:30.616Z,46.49
2023-04-19T23:46:58.652Z,46.38
2023-04-19T23:49:26.571Z,46.57
2023-04-19T23:51:55.923Z,46.36
2023-04-19T23:54:26.172Z,46.65
2023-04-19T23:56:54.240Z,46.74
2023-04-19T23:59:26.873Z,46.70
